Time;durP1;ratioP1;P1;durP2;ratioP2;P2;SDS_P1;SDS_P2;PMS_P1;PMS_P2;Temp;Humidity;BMP_temperature;BMP_pressure;BME280_temperature;BME280_humidity;BME280_pressure;Samples;Min_cycle;Max_cycle;Signal;HPM_P1;HPM_P2
2022/11/20 00:01:49;;;;;;;6.20;3.47;;;9.10;72.70;;;;;;5071828;28;20486;-64
2022/11/20 00:04:15;;;;;;;4.00;2.55;;;9.10;72.60;;;;;;5082511;28;20238;-65
2022/11/20 00:06:40;;;;;;;3.13;2.50;;;9.10;72.70;;;;;;5090360;28;20044;-64
2022/11/20 00:09:06;;;;;;;3.58;2.67;;;9.10;72.80;;;;;;5086849;28;20033;-64
2022/11/20 00:11:32;;;;;;;4.35;2.53;;;9.00;72.80;;;;;;5079632;28;20088;-64
2022/11/20 00:14:00;;;;;;;4.03;2.80;;;9.10;73.00;;;;;;5089053;28;20032;-64
2022/11/20 00:16:27;;;;;;;4.55;2.90;;;9.10;72.90;;;;;;5083154;28;20028;-64
2022/11/20 00:18:54;;;;;;;5.22;3.10;;;9.10;72.70;;;;;;5083005;28;20025;-64
2022/11/20 00:21:22;;;;;;;5.50;3.35;;;9.10;72.80;;;;;;5078090;28;20025;-63
2022/11/20 00:23:49;;;;;;;5.43;3.50;;;9.10;72.90;;;;;;5085056;28;20028;-63
2022/11/20 00:26:17;;;;;;;5.72;3.38;;;9.10;72.90;;;;;;5081258;28;20510;-64
2022/11/20 00:28:48;;;;;;;4.65;2.78;;;9.20;72.90;;;;;;5081608;28;20028;-65
2022/11/20 00:31:15;;;;;;;4.88;3.08;;;9.20;72.80;;;;;;5082584;28;20036;-65
2022/11/20 00:33:42;;;;;;;4.47;2.63;;;9.20;72.80;;;;;;5089989;28;20023;-65
2022/11/20 00:36:10;;;;;;;5.65;3.03;;;9.20;72.70;;;;;;5085690;28;20052;-65
2022/11/20 00:38:36;;;;;;;5.68;3.28;;;9.20;72.70;;;;;;5085053;28;20112;-64
2022/11/20 00:41:06;;;;;;;5.05;2.92;;;9.20;72.80;;;;;;5081417;28;20032;-65
2022/11/20 00:43:32;;;;;;;5.60;3.08;;;9.20;72.70;;;;;;5084948;28;20047;-65
2022/11/20 00:46:06;;;;;;;3.53;2.70;;;9.20;72.40;;;;;;5080541;28;20021;-64
2022/11/20 00:48:32;;;;;;;4.22;2.90;;;9.20;72.10;;;;;;5085813;28;20056;-65
2022/11/20 00:50:58;;;;;;;3.30;2.70;;;9.20;71.90;;;;;;5073889;28;20032;-65
2022/11/20 00:53:24;;;;;;;4.15;2.88;;;9.20;71.80;;;;;;5082151;28;20074;-67
2022/11/20 00:56:05;;;;;;;3.85;2.72;;;9.10;71.60;;;;;;5077680;28;20120;-65
2022/11/20 00:58:33;;;;;;;3.78;2.83;;;9.00;71.60;;;;;;5088026;28;20042;-66
2022/11/20 01:01:02;;;;;;;2.83;1.95;;;9.00;71.70;;;;;;5076709;28;20036;-65
2022/11/20 01:03:27;;;;;;;3.72;2.13;;;8.90;71.70;;;;;;5084076;28;20036;-64
2022/11/20 01:05:53;;;;;;;3.28;2.45;;;8.90;71.70;;;;;;5072241;28;20077;-65
2022/11/20 01:08:19;;;;;;;6.00;2.67;;;8.90;71.70;;;;;;5082882;28;20060;-63
2022/11/20 01:10:44;;;;;;;3.42;2.53;;;8.90;71.70;;;;;;5074353;28;20082;-65
2022/11/20 01:15:54;;;;;;;5.43;2.80;;;8.80;71.70;;;;;;5076616;28;20067;-64
2022/11/20 01:18:20;;;;;;;4.47;2.42;;;8.80;71.80;;;;;;5081667;28;20029;-63
2022/11/20 01:20:45;;;;;;;4.80;3.10;;;8.70;71.80;;;;;;5083111;28;20033;-64
2022/11/20 01:23:11;;;;;;;5.20;3.20;;;8.70;71.90;;;;;;5086717;28;20060;-65
2022/11/20 01:25:36;;;;;;;4.95;3.08;;;8.70;72.00;;;;;;5092787;28;20031;-63
2022/11/20 01:28:02;;;;;;;6.82;3.33;;;8.70;72.10;;;;;;5091884;28;20029;-64
2022/11/20 01:30:28;;;;;;;4.32;2.83;;;8.70;72.10;;;;;;5089383;28;20031;-63
2022/11/20 01:32:55;;;;;;;5.72;3.53;;;8.70;72.20;;;;;;5079949;28;20032;-63
2022/11/20 01:35:21;;;;;;;4.30;2.65;;;8.70;72.30;;;;;;5088263;28;20080;-64
2022/11/20 01:37:46;;;;;;;3.92;2.80;;;8.70;72.30;;;;;;5088221;28;20036;-64
2022/11/20 01:40:12;;;;;;;5.20;3.22;;;8.70;72.30;;;;;;5085314;28;20039;-64
2022/11/20 01:45:52;;;;;;;9.35;3.75;;;8.70;72.40;;;;;;5076648;28;20035;-64
2022/11/20 01:48:20;;;;;;;6.75;3.50;;;8.70;72.60;;;;;;5098487;28;20081;-65
2022/11/20 01:50:46;;;;;;;9.15;3.60;;;8.60;72.40;;;;;;5081785;28;20028;-64
2022/11/20 01:53:16;;;;;;;4.78;3.35;;;8.60;72.30;;;;;;5075094;28;20036;-63
2022/11/20 01:55:48;;;;;;;5.13;3.33;;;8.60;72.40;;;;;;5077077;28;20100;-65
2022/11/20 01:58:15;;;;;;;6.00;3.30;;;8.60;72.30;;;;;;5076250;28;20169;-64
2022/11/20 02:00:40;;;;;;;6.53;3.10;;;8.60;72.30;;;;;;5080216;28;20437;-65
2022/11/20 02:03:13;;;;;;;4.10;3.03;;;8.60;72.20;;;;;;5084919;28;20096;-64
2022/11/20 02:05:51;;;;;;;5.68;2.92;;;8.50;72.20;;;;;;5079035;28;20122;-63
2022/11/20 02:08:19;;;;;;;5.50;3.10;;;8.50;72.20;;;;;;5080128;28;20197;-63
2022/11/20 02:10:44;;;;;;;5.50;3.45;;;8.50;72.20;;;;;;5080236;28;20032;-64
2022/11/20 02:15:55;;;;;;;5.57;3.65;;;8.40;72.20;;;;;;5079914;28;20058;-64
2022/11/20 02:18:22;;;;;;;6.32;3.63;;;8.40;72.30;;;;;;5075122;28;20025;-63
2022/11/20 02:20:52;;;;;;;5.40;3.80;;;8.30;72.10;;;;;;5088051;28;20028;-64
2022/11/20 02:23:28;;;;;;;6.13;3.25;;;8.30;72.20;;;;;;5079998;28;20351;-64
2022/11/20 02:25:55;;;;;;;5.85;3.55;;;8.30;72.20;;;;;;5066432;28;20037;-64
2022/11/20 02:28:21;;;;;;;5.32;3.72;;;8.20;72.30;;;;;;5084723;28;20079;-64
2022/11/20 02:30:47;;;;;;;5.78;3.75;;;8.20;72.30;;;;;;5086299;28;20029;-65
2022/11/20 02:33:13;;;;;;;6.13;3.47;;;8.20;72.30;;;;;;5089361;28;20044;-64
2022/11/20 02:35:45;;;;;;;5.03;3.75;;;8.20;72.20;;;;;;5076179;28;20500;-63
2022/11/20 02:38:11;;;;;;;6.20;3.50;;;8.10;72.20;;;;;;5083655;28;20370;-64
2022/11/20 02:40:37;;;;;;;5.07;2.97;;;8.10;72.20;;;;;;5089827;28;20060;-64
2022/11/20 02:43:02;;;;;;;5.68;3.42;;;8.10;72.30;;;;;;5082494;28;20029;-64
2022/11/20 02:45:28;;;;;;;4.38;3.00;;;8.10;72.40;;;;;;5080603;28;20059;-64
2022/11/20 02:47:54;;;;;;;3.55;2.70;;;8.10;72.40;;;;;;5079536;28;20074;-64
2022/11/20 02:50:20;;;;;;;3.50;2.90;;;8.00;72.40;;;;;;5082564;28;20073;-64
2022/11/20 02:52:45;;;;;;;4.22;2.70;;;8.00;72.40;;;;;;5076140;28;20040;-65
2022/11/20 02:55:11;;;;;;;4.88;3.20;;;8.00;72.50;;;;;;5082916;28;20036;-63
2022/11/20 02:57:37;;;;;;;3.22;2.42;;;8.00;72.50;;;;;;5084361;28;20056;-64
2022/11/20 03:00:04;;;;;;;5.68;2.58;;;7.90;72.50;;;;;;5077609;28;20039;-63
2022/11/20 03:02:30;;;;;;;3.70;2.53;;;8.00;72.80;;;;;;5082181;28;20025;-64
2022/11/20 03:04:56;;;;;;;3.50;2.15;;;7.90;72.70;;;;;;5084679;28;20020;-65
2022/11/20 03:07:22;;;;;;;2.40;2.20;;;7.90;72.70;;;;;;5085149;28;20051;-64
2022/11/20 03:09:47;;;;;;;2.58;2.33;;;7.90;72.70;;;;;;5077354;28;20037;-64
2022/11/20 03:12:13;;;;;;;4.22;3.03;;;7.90;72.70;;;;;;5080326;28;20037;-65
2022/11/20 03:14:39;;;;;;;4.10;2.35;;;7.90;72.70;;;;;;5092103;28;20113;-64
2022/11/20 03:17:05;;;;;;;3.58;2.20;;;7.90;72.70;;;;;;5084244;28;20035;-65
2022/11/20 03:19:31;;;;;;;4.25;2.55;;;7.90;72.50;;;;;;5088308;28;20029;-64
2022/11/20 03:21:57;;;;;;;4.05;2.28;;;7.80;72.40;;;;;;5089161;28;20024;-65
2022/11/20 03:24:23;;;;;;;6.18;2.45;;;7.90;72.60;;;;;;5089347;28;20044;-66
2022/11/20 03:26:48;;;;;;;3.30;2.40;;;7.80;72.70;;;;;;5091668;28;21186;-64
2022/11/20 03:29:14;;;;;;;2.90;2.33;;;7.80;72.70;;;;;;5098154;28;20040;-63
2022/11/20 03:31:40;;;;;;;4.32;2.47;;;7.80;72.60;;;;;;5079514;28;20047;-64
2022/11/20 03:34:08;;;;;;;2.72;2.28;;;7.80;72.50;;;;;;5092342;28;20083;-64
2022/11/20 03:36:34;;;;;;;3.90;2.30;;;7.80;72.50;;;;;;5087089;28;20036;-66
2022/11/20 03:39:00;;;;;;;5.07;2.47;;;7.70;72.50;;;;;;5084469;28;20108;-64
2022/11/20 03:41:28;;;;;;;4.10;2.60;;;7.70;72.40;;;;;;5083212;28;20029;-63
2022/11/20 03:43:56;;;;;;;4.43;2.65;;;7.60;72.40;;;;;;5079869;28;20036;-65
2022/11/20 03:46:23;;;;;;;3.38;2.38;;;7.60;72.50;;;;;;5081904;28;20029;-64
2022/11/20 03:48:49;;;;;;;4.53;2.40;;;7.60;72.40;;;;;;5076671;28;20113;-64
2022/11/20 03:51:26;;;;;;;4.80;3.40;;;7.50;72.50;;;;;;5075474;28;20017;-64
2022/11/20 03:53:54;;;;;;;4.25;3.20;;;7.50;72.40;;;;;;5081335;28;20039;-64
2022/11/20 03:56:23;;;;;;;4.05;2.70;;;7.40;72.40;;;;;;5088341;28;20032;-65
2022/11/20 03:58:49;;;;;;;4.78;2.70;;;7.40;72.30;;;;;;5096015;28;20024;-63
2022/11/20 04:01:23;;;;;;;3.72;2.33;;;7.40;72.30;;;;;;5078226;28;20040;-64
2022/11/20 04:03:51;;;;;;;3.40;2.05;;;7.40;72.30;;;;;;5085036;28;20090;-65
2022/11/20 04:06:22;;;;;;;2.65;2.28;;;7.40;72.40;;;;;;5079570;28;20028;-64
2022/11/20 04:08:48;;;;;;;2.45;1.98;;;7.40;72.30;;;;;;5083270;28;20135;-65
2022/11/20 04:11:16;;;;;;;3.95;2.03;;;7.40;72.40;;;;;;5081417;28;20050;-62
2022/11/20 04:13:45;;;;;;;2.28;1.90;;;7.30;72.40;;;;;;5087394;28;20029;-65
2022/11/20 04:16:11;;;;;;;3.40;1.92;;;7.30;72.40;;;;;;5074177;28;20111;-63
2022/11/20 04:18:37;;;;;;;3.25;2.20;;;7.30;72.40;;;;;;5076287;28;20044;-65
2022/11/20 04:21:04;;;;;;;2.50;1.83;;;7.30;72.40;;;;;;5079740;28;20036;-64
2022/11/20 04:23:30;;;;;;;2.60;1.92;;;7.30;72.50;;;;;;5087264;28;20070;-64
2022/11/20 04:26:08;;;;;;;4.45;2.35;;;7.30;72.60;;;;;;5087458;28;20024;-64
2022/11/20 04:28:35;;;;;;;3.63;2.30;;;7.30;72.80;;;;;;5071783;28;20024;-64
2022/11/20 04:31:18;;;;;;;4.18;2.30;;;7.30;72.80;;;;;;5076148;28;20031;-64
2022/11/20 04:33:44;;;;;;;3.63;2.30;;;7.30;72.80;;;;;;5074749;28;20669;-64
2022/11/20 04:36:16;;;;;;;2.20;2.00;;;7.30;72.70;;;;;;5084298;28;20328;-64
2022/11/20 04:38:42;;;;;;;3.20;2.17;;;7.30;72.70;;;;;;5080215;28;20035;-63
2022/11/20 04:41:14;;;;;;;2.92;1.95;;;7.30;72.60;;;;;;5082878;28;20036;-65
2022/11/20 04:43:40;;;;;;;4.10;1.92;;;7.30;72.50;;;;;;5082955;28;20142;-66
2022/11/20 04:46:06;;;;;;;3.33;2.13;;;7.30;72.40;;;;;;5084631;28;20025;-64
2022/11/20 04:48:31;;;;;;;2.40;1.98;;;7.30;72.40;;;;;;5088558;28;20057;-64
2022/11/20 04:50:57;;;;;;;3.63;2.13;;;7.30;72.40;;;;;;5082855;28;20052;-64
2022/11/20 04:53:24;;;;;;;3.72;1.83;;;7.30;72.20;;;;;;5084741;28;20094;-64
2022/11/20 04:55:49;;;;;;;2.70;2.15;;;7.30;72.00;;;;;;5086388;28;20020;-65
2022/11/20 04:58:16;;;;;;;2.63;2.17;;;7.30;72.00;;;;;;5078330;28;20020;-63
2022/11/20 05:00:41;;;;;;;3.78;2.20;;;7.20;72.00;;;;;;5078361;28;20021;-64
2022/11/20 05:03:07;;;;;;;3.38;2.30;;;7.20;72.10;;;;;;5077734;28;20024;-64
2022/11/20 05:05:36;;;;;;;4.88;2.50;;;7.10;72.00;;;;;;5083913;28;20628;-64
2022/11/20 05:08:01;;;;;;;4.10;2.70;;;7.10;72.00;;;;;;5073806;28;20055;-65
2022/11/20 05:10:27;;;;;;;2.80;2.05;;;7.10;72.10;;;;;;5075508;28;20036;-64
2022/11/20 05:12:53;;;;;;;4.28;2.47;;;7.10;72.90;;;;;;5077377;28;20089;-65
2022/11/20 05:15:19;;;;;;;3.45;2.70;;;7.00;72.20;;;;;;5072397;28;20037;-63
2022/11/20 05:17:48;;;;;;;4.85;2.40;;;7.00;72.20;;;;;;5077271;28;20055;-64
2022/11/20 05:20:14;;;;;;;2.97;2.60;;;7.00;72.20;;;;;;5079750;28;20024;-64
2022/11/20 05:22:40;;;;;;;4.05;2.80;;;6.90;72.20;;;;;;5086655;28;20024;-64
2022/11/20 05:25:06;;;;;;;2.95;2.25;;;6.90;72.30;;;;;;5077690;28;20365;-64
2022/11/20 05:27:31;;;;;;;3.13;2.50;;;6.90;72.30;;;;;;5084080;28;20431;-64
2022/11/20 05:29:57;;;;;;;3.72;2.63;;;6.90;72.40;;;;;;5086890;28;20036;-64
2022/11/20 05:32:25;;;;;;;3.33;2.40;;;6.90;72.40;;;;;;5074928;28;20040;-64
2022/11/20 05:34:53;;;;;;;3.53;2.75;;;6.90;72.40;;;;;;5077115;28;20526;-66
2022/11/20 05:37:19;;;;;;;5.00;3.13;;;6.90;72.50;;;;;;5079923;28;20095;-64
2022/11/20 05:39:45;;;;;;;5.07;3.25;;;6.90;72.60;;;;;;5077728;28;20052;-65
2022/11/20 05:44:54;;;;;;;4.20;3.13;;;6.90;72.60;;;;;;5083350;28;20044;-63
2022/11/20 05:47:20;;;;;;;5.07;2.63;;;6.90;72.60;;;;;;5075554;28;20049;-64
2022/11/20 05:49:46;;;;;;;4.90;2.42;;;6.90;72.50;;;;;;5078292;28;20387;-65
2022/11/20 05:52:11;;;;;;;3.25;2.40;;;6.90;72.50;;;;;;5073109;28;20064;-63
2022/11/20 05:54:37;;;;;;;2.17;2.00;;;6.90;72.50;;;;;;5079715;28;20021;-65
2022/11/20 05:57:03;;;;;;;4.35;2.38;;;6.90;72.40;;;;;;5084960;28;20025;-65
2022/11/20 05:59:30;;;;;;;5.00;2.30;;;6.90;72.30;;;;;;5078333;28;20028;-65
2022/11/20 06:01:56;;;;;;;4.57;2.80;;;6.90;73.00;;;;;;5073898;28;20098;-65
2022/11/20 06:04:21;;;;;;;3.63;2.90;;;6.90;72.40;;;;;;5088711;28;20501;-65
2022/11/20 06:06:47;;;;;;;3.45;2.70;;;6.90;72.60;;;;;;5080684;28;20025;-65
2022/11/20 06:09:13;;;;;;;3.15;2.10;;;6.90;72.60;;;;;;5088637;28;20080;-66
2022/11/20 06:11:38;;;;;;;3.35;2.38;;;6.90;72.60;;;;;;5080008;28;20028;-66
2022/11/20 06:14:04;;;;;;;2.95;2.25;;;6.90;73.20;;;;;;5084686;28;20051;-66
2022/11/20 06:16:30;;;;;;;4.03;2.42;;;6.90;72.40;;;;;;5093279;28;20083;-66
2022/11/20 06:18:55;;;;;;;2.85;2.22;;;6.90;72.40;;;;;;5087121;28;20665;-66
2022/11/20 06:21:22;;;;;;;3.08;2.22;;;6.90;72.40;;;;;;5079575;28;20040;-66
2022/11/20 06:23:49;;;;;;;3.85;2.28;;;6.90;72.50;;;;;;5082758;28;20103;-64
2022/11/20 06:26:24;;;;;;;4.80;2.75;;;6.80;72.50;;;;;;5084240;28;20031;-65
2022/11/20 06:28:51;;;;;;;3.33;2.22;;;6.80;72.50;;;;;;5075316;28;20576;-64
2022/11/20 06:31:20;;;;;;;2.60;2.40;;;6.80;72.60;;;;;;5087183;28;20020;-64
2022/11/20 06:33:45;;;;;;;4.05;2.85;;;6.80;72.70;;;;;;5079366;28;20036;-63
2022/11/20 06:36:13;;;;;;;5.10;3.15;;;6.80;72.70;;;;;;5082677;28;20053;-64
2022/11/20 06:38:39;;;;;;;3.28;2.20;;;6.80;72.80;;;;;;5089716;28;20063;-64
2022/11/20 06:41:06;;;;;;;6.32;3.53;;;6.80;72.70;;;;;;5085638;28;20024;-64
2022/11/20 06:43:32;;;;;;;4.18;2.80;;;6.90;73.00;;;;;;5082927;28;20024;-63
2022/11/20 06:45:59;;;;;;;3.38;2.33;;;6.90;72.80;;;;;;5086472;28;20021;-63
2022/11/20 06:48:27;;;;;;;3.22;2.20;;;6.90;72.80;;;;;;5102828;28;20066;-65
2022/11/20 06:50:52;;;;;;;3.30;2.30;;;6.90;72.80;;;;;;5088391;28;20012;-64
2022/11/20 06:53:18;;;;;;;3.17;2.13;;;6.90;72.90;;;;;;5094097;28;20071;-65
2022/11/20 06:55:45;;;;;;;3.40;2.05;;;6.90;72.90;;;;;;5094879;28;20024;-65
2022/11/20 06:58:12;;;;;;;4.93;1.90;;;6.90;72.80;;;;;;5084275;28;20036;-65
2022/11/20 07:00:37;;;;;;;4.43;2.60;;;6.90;72.90;;;;;;5091081;28;20055;-64
2022/11/20 07:03:04;;;;;;;4.32;2.58;;;6.90;72.90;;;;;;5081793;28;20024;-65
2022/11/20 07:05:30;;;;;;;3.03;2.20;;;7.00;72.90;;;;;;5091042;28;20039;-65
2022/11/20 07:07:56;;;;;;;3.25;2.28;;;7.00;72.90;;;;;;5085167;28;20028;-67
2022/11/20 07:10:22;;;;;;;6.68;2.38;;;7.00;72.90;;;;;;5082465;28;20111;-68
2022/11/20 07:12:52;;;;;;;3.08;2.50;;;7.00;72.80;;;;;;5076750;28;20048;-68
2022/11/20 07:15:19;;;;;;;5.30;2.83;;;7.00;72.90;;;;;;5087727;28;20070;-68
2022/11/20 07:17:45;;;;;;;4.40;2.40;;;7.10;72.90;;;;;;5078361;28;20301;-68
2022/11/20 07:20:11;;;;;;;5.72;2.90;;;7.00;72.90;;;;;;5086260;28;20036;-68
2022/11/20 07:22:37;;;;;;;6.43;3.20;;;7.10;73.00;;;;;;5085589;28;20016;-68
2022/11/20 07:25:03;;;;;;;5.43;3.33;;;7.10;72.90;;;;;;5084724;28;20035;-68
2022/11/20 07:27:29;;;;;;;6.88;2.58;;;7.10;72.90;;;;;;5092194;28;20530;-68
2022/11/20 07:29:55;;;;;;;4.47;2.65;;;7.10;72.90;;;;;;5084758;28;20615;-68
2022/11/20 07:32:21;;;;;;;4.03;1.88;;;7.20;72.90;;;;;;5079657;28;20056;-68
2022/11/20 07:34:47;;;;;;;4.50;2.20;;;7.20;72.80;;;;;;5090287;28;20028;-68
2022/11/20 07:37:13;;;;;;;3.80;2.30;;;7.20;72.70;;;;;;5083899;28;20028;-68
2022/11/20 07:39:39;;;;;;;3.90;2.38;;;7.20;72.60;;;;;;5087883;28;20024;-68
2022/11/20 07:42:05;;;;;;;4.13;2.70;;;7.20;72.50;;;;;;5083055;28;20055;-68
2022/11/20 07:44:31;;;;;;;3.47;2.28;;;7.20;72.50;;;;;;5088234;28;20088;-68
2022/11/20 07:46:57;;;;;;;5.72;2.65;;;7.20;72.40;;;;;;5083274;28;20059;-67
2022/11/20 07:49:22;;;;;;;5.10;3.35;;;7.20;72.30;;;;;;5085433;28;20021;-66
2022/11/20 07:51:51;;;;;;;5.20;3.22;;;7.20;72.30;;;;;;5077378;28;20054;-67
2022/11/20 07:54:16;;;;;;;5.57;3.03;;;7.20;72.40;;;;;;5074939;28;20031;-68
2022/11/20 07:56:42;;;;;;;15.32;5.03;;;7.20;72.40;;;;;;5082476;28;20029;-67
2022/11/20 07:59:08;;;;;;;9.32;3.90;;;7.20;72.50;;;;;;5080376;28;20033;-68
2022/11/20 08:01:33;;;;;;;12.50;5.63;;;7.20;72.50;;;;;;5074819;28;20036;-67
2022/11/20 08:03:59;;;;;;;11.57;4.80;;;7.20;72.50;;;;;;5075486;28;20033;-68
2022/11/20 08:06:25;;;;;;;6.63;3.55;;;7.30;72.60;;;;;;5079354;28;20363;-68
2022/11/20 08:08:51;;;;;;;7.57;4.13;;;7.30;72.60;;;;;;5081423;28;20043;-68
2022/11/20 08:14:13;;;;;;;8.18;4.70;;;7.30;72.50;;;;;;5082798;28;20039;-67
2022/11/20 08:16:44;;;;;;;6.95;3.45;;;7.30;72.50;;;;;;5075706;28;20049;-67
2022/11/20 08:19:10;;;;;;;7.85;3.15;;;7.30;72.40;;;;;;5077587;28;20025;-67
2022/11/20 08:21:36;;;;;;;5.45;3.40;;;7.30;72.40;;;;;;5082596;28;20084;-68
2022/11/20 08:24:02;;;;;;;5.30;3.40;;;7.40;72.40;;;;;;5086998;28;20052;-68
2022/11/20 08:26:28;;;;;;;7.63;4.45;;;7.40;72.40;;;;;;5079274;28;20025;-67
2022/11/20 08:28:55;;;;;;;8.00;4.47;;;7.40;72.40;;;;;;5091756;28;20149;-68
2022/11/20 08:31:22;;;;;;;5.13;2.90;;;7.40;72.60;;;;;;5082015;28;20029;-67
2022/11/20 08:33:48;;;;;;;6.18;3.15;;;7.50;72.70;;;;;;5075289;28;20078;-68
2022/11/20 08:36:14;;;;;;;9.30;4.78;;;7.50;72.50;;;;;;5080254;28;20020;-67
2022/11/20 08:38:39;;;;;;;5.85;3.28;;;7.50;72.50;;;;;;5081600;28;20107;-68
2022/11/20 08:41:25;;;;;;;5.35;3.60;;;7.60;72.50;;;;;;5081005;28;20029;-66
2022/11/20 08:43:53;;;;;;;3.97;2.90;;;7.60;72.40;;;;;;5081000;28;20042;-66
2022/11/20 08:46:19;;;;;;;5.53;3.20;;;7.60;72.40;;;;;;5076549;28;20040;-67
2022/11/20 08:48:44;;;;;;;5.28;3.47;;;7.70;72.40;;;;;;5078065;28;20087;-68
2022/11/20 08:51:11;;;;;;;3.70;2.65;;;7.70;72.30;;;;;;5085818;28;20382;-66
2022/11/20 08:53:38;;;;;;;8.50;4.90;;;7.80;72.40;;;;;;5086238;28;20086;-67
2022/11/20 08:56:06;;;;;;;6.15;4.30;;;7.80;72.30;;;;;;5078963;28;20483;-67
2022/11/20 08:58:31;;;;;;;5.95;3.13;;;7.80;72.10;;;;;;5085325;28;20035;-67
2022/11/20 09:00:57;;;;;;;6.18;3.95;;;7.90;72.00;;;;;;5083154;28;20078;-67
2022/11/20 09:03:23;;;;;;;5.65;4.15;;;7.90;71.90;;;;;;5077348;28;20024;-67
2022/11/20 09:05:48;;;;;;;4.68;3.03;;;8.00;72.10;;;;;;5080146;28;20039;-68
2022/11/20 09:08:14;;;;;;;6.32;4.28;;;8.00;72.00;;;;;;5078631;28;20021;-67
2022/11/20 09:10:40;;;;;;;5.00;3.15;;;8.10;71.90;;;;;;5084030;28;20082;-67
2022/11/20 09:13:06;;;;;;;4.95;3.17;;;8.10;71.90;;;;;;5086062;28;20055;-68
2022/11/20 09:15:32;;;;;;;6.78;2.58;;;8.20;71.60;;;;;;5078091;28;20021;-66
2022/11/20 09:18:00;;;;;;;4.05;2.70;;;8.20;71.60;;;;;;5088602;28;20058;-67
2022/11/20 09:20:28;;;;;;;4.15;2.70;;;8.20;71.50;;;;;;5077250;28;20054;-67
2022/11/20 09:22:54;;;;;;;4.40;2.72;;;8.20;71.40;;;;;;5088555;28;20031;-67
2022/11/20 09:25:20;;;;;;;3.90;2.17;;;8.30;71.40;;;;;;5084332;28;20036;-67
2022/11/20 09:27:45;;;;;;;3.78;2.40;;;8.30;71.40;;;;;;5087540;28;20035;-67
2022/11/20 09:30:13;;;;;;;3.08;2.20;;;8.30;71.30;;;;;;5082407;28;20033;-67
2022/11/20 09:32:39;;;;;;;4.82;2.90;;;8.30;71.30;;;;;;5091371;28;20032;-67
2022/11/20 09:35:05;;;;;;;2.78;2.30;;;8.30;71.30;;;;;;5088369;28;20017;-68
2022/11/20 09:37:31;;;;;;;4.10;2.83;;;8.30;71.30;;;;;;5086535;28;20031;-67
2022/11/20 09:39:57;;;;;;;4.15;2.25;;;8.40;71.40;;;;;;5082070;28;20071;-66
2022/11/20 09:42:41;;;;;;;2.45;2.20;;;8.40;71.40;;;;;;5091923;28;20043;-67
2022/11/20 09:45:17;;;;;;;4.82;3.88;;;8.40;71.30;;;;;;5080294;28;20046;-67
2022/11/20 09:47:54;;;;;;;3.10;2.53;;;8.40;71.20;;;;;;5089334;28;20048;-66
2022/11/20 09:50:47;;;;;;;2.72;2.10;;;8.50;71.30;;;;;;5081453;28;20058;-67
2022/11/20 09:53:23;;;;;;;1.98;1.83;;;8.40;71.00;;;;;;5080815;28;20063;-67
2022/11/20 09:55:49;;;;;;;2.47;1.90;;;8.40;70.80;;;;;;5079359;28;20043;-67
2022/11/20 09:58:42;;;;;;;4.53;2.78;;;8.40;71.00;;;;;;5091367;28;20084;-67
2022/11/20 10:01:18;;;;;;;4.03;2.30;;;8.40;71.10;;;;;;5080112;28;20085;-67
2022/11/20 10:03:53;;;;;;;3.85;3.28;;;8.50;71.10;;;;;;5080878;28;20088;-66
2022/11/20 10:06:27;;;;;;;2.78;1.95;;;8.50;71.10;;;;;;5089022;28;20029;-67
2022/11/20 10:09:16;;;;;;;2.75;2.13;;;8.50;71.80;;;;;;5080128;28;20013;-65
2022/11/20 10:12:18;;;;;;;5.07;3.22;;;8.50;71.00;;;;;;5081377;28;20012;-67
2022/11/20 10:15:18;;;;;;;3.15;2.35;;;8.50;70.90;;;;;;5086200;28;20040;-68
2022/11/20 10:18:16;;;;;;;3.40;2.28;;;8.50;70.90;;;;;;5087147;28;20051;-67
2022/11/20 10:20:56;;;;;;;2.30;1.90;;;8.60;71.10;;;;;;5089392;28;20017;-66
2022/11/20 10:23:45;;;;;;;3.15;2.30;;;8.60;71.20;;;;;;5082655;28;20143;-66
2022/11/20 10:26:39;;;;;;;4.68;3.28;;;8.60;71.40;;;;;;5079332;28;20028;-66
2022/11/20 10:29:18;;;;;;;3.10;2.30;;;8.70;71.30;;;;;;5083958;28;20044;-67
2022/11/20 10:32:01;;;;;;;3.75;2.47;;;8.70;71.20;;;;;;5086706;28;20020;-67
2022/11/20 10:34:57;;;;;;;2.33;1.95;;;8.70;71.10;;;;;;5091211;28;20115;-67
2022/11/20 10:37:26;;;;;;;1.92;1.73;;;8.80;71.00;;;;;;5099908;28;20031;-67
2022/11/20 10:40:08;;;;;;;3.22;2.00;;;8.80;71.20;;;;;;5096612;28;20028;-67
2022/11/20 10:42:44;;;;;;;3.67;2.05;;;8.80;71.10;;;;;;5088817;28;20092;-67
2022/11/20 10:45:27;;;;;;;1.80;1.70;;;8.90;71.30;;;;;;5092231;28;20025;-67
2022/11/20 10:48:15;;;;;;;3.40;2.33;;;8.90;71.30;;;;;;5086560;28;20113;-67
2022/11/20 10:50:53;;;;;;;2.25;2.03;;;9.00;71.30;;;;;;5093001;28;20024;-67
2022/11/20 10:53:39;;;;;;;2.90;1.80;;;9.00;71.40;;;;;;5084011;28;20079;-66
2022/11/20 10:56:29;;;;;;;2.30;1.80;;;9.10;71.30;;;;;;5073551;28;20044;-67
2022/11/20 10:59:19;;;;;;;2.33;1.50;;;9.10;71.20;;;;;;5094419;28;20040;-67
2022/11/20 11:01:45;;;;;;;2.05;1.65;;;9.10;71.20;;;;;;5087075;28;20039;-67
2022/11/20 11:04:40;;;;;;;1.55;1.45;;;9.20;71.20;;;;;;5089860;28;20036;-67
2022/11/20 11:07:15;;;;;;;2.22;1.70;;;9.20;71.20;;;;;;5088106;28;20066;-68
2022/11/20 11:09:54;;;;;;;2.08;1.55;;;9.30;71.40;;;;;;5083289;28;20032;-67
2022/11/20 11:12:21;;;;;;;3.47;1.60;;;9.30;71.30;;;;;;5080709;28;20044;-67
2022/11/20 11:14:49;;;;;;;4.95;1.67;;;9.30;71.20;;;;;;5083880;28;20078;-67
2022/11/20 11:17:33;;;;;;;2.35;1.60;;;9.30;71.10;;;;;;5091409;28;20047;-68
2022/11/20 11:20:02;;;;;;;;;;;9.30;71.10;;;;;;5079690;28;20409;-68
2022/11/20 11:22:30;;;;;;;2.20;1.50;;;9.40;71.10;;;;;;5086726;28;19908;-66
2022/11/20 11:24:56;;;;;;;3.47;1.60;;;9.40;70.90;;;;;;5084927;28;20086;-68
2022/11/20 11:27:22;;;;;;;2.40;1.75;;;9.40;71.10;;;;;;5089115;28;20596;-67
2022/11/20 11:29:47;;;;;;;3.17;1.85;;;9.40;71.20;;;;;;5091299;28;20035;-67
2022/11/20 11:32:14;;;;;;;1.63;1.48;;;9.40;71.20;;;;;;5081394;28;20040;-67
2022/11/20 11:34:40;;;;;;;3.15;1.40;;;9.40;71.30;;;;;;5082913;28;20073;-68
2022/11/20 11:37:19;;;;;;;2.30;1.77;;;9.40;71.30;;;;;;5078779;28;20037;-67
2022/11/20 11:39:47;;;;;;;1.85;1.60;;;9.40;71.30;;;;;;5081238;28;20470;-67
2022/11/20 11:42:19;;;;;;;2.47;1.63;;;9.40;71.30;;;;;;5088563;28;20071;-67
2022/11/20 11:45:05;;;;;;;2.30;1.63;;;9.40;71.40;;;;;;5073572;28;20431;-67
2022/11/20 11:47:37;;;;;;;2.88;1.90;;;9.40;71.40;;;;;;5083783;28;20040;-66
2022/11/20 11:50:15;;;;;;;13.57;6.03;;;9.40;71.40;;;;;;5087922;28;20079;-68
2022/11/20 11:52:53;;;;;;;6.38;3.40;;;9.40;71.50;;;;;;5081187;28;20036;-68
2022/11/20 11:55:21;;;;;;;3.47;2.30;;;9.50;71.40;;;;;;5072618;28;20032;-67
2022/11/20 11:57:54;;;;;;;3.72;1.77;;;9.50;71.40;;;;;;5090467;28;20103;-68
2022/11/20 12:00:21;;;;;;;1.63;1.15;;;9.50;71.30;;;;;;5072781;28;20533;-67
2022/11/20 12:02:50;;;;;;;1.58;1.27;;;9.40;71.30;;;;;;5075541;28;20024;-68
2022/11/20 12:05:21;;;;;;;2.28;1.50;;;9.50;71.30;;;;;;5086437;28;20028;-68
2022/11/20 12:07:56;;;;;;;0.93;0.93;;;9.40;71.30;;;;;;5086617;28;20016;-68
2022/11/20 12:10:35;;;;;;;1.42;1.00;;;9.40;71.40;;;;;;5086375;28;20032;-68
2022/11/20 12:13:10;;;;;;;2.40;1.67;;;9.40;71.30;;;;;;5090885;28;20040;-67
2022/11/20 12:15:38;;;;;;;1.42;1.33;;;9.40;71.50;;;;;;5079399;28;20040;-67
2022/11/20 12:18:14;;;;;;;2.97;1.98;;;9.40;71.80;;;;;;5086918;28;20028;-68
2022/11/20 12:21:07;;;;;;;1.50;1.40;;;9.40;71.90;;;;;;5085131;28;20077;-66
2022/11/20 12:23:48;;;;;;;1.60;1.20;;;9.40;71.80;;;;;;5085975;28;20040;-67
2022/11/20 12:26:43;;;;;;;0.80;0.80;;;9.40;71.30;;;;;;5090201;28;20039;-69
2022/11/20 12:29:32;;;;;;;0.93;0.82;;;9.40;71.20;;;;;;5081234;28;20032;-68
2022/11/20 12:32:18;;;;;;;1.80;1.10;;;9.30;71.10;;;;;;5076193;28;20032;-68
2022/11/20 12:34:59;;;;;;;0.70;0.70;;;9.30;71.50;;;;;;5084400;28;20035;-67
2022/11/20 12:38:03;;;;;;;0.90;0.90;;;9.30;71.70;;;;;;5085499;28;20029;-67
2022/11/20 12:40:38;;;;;;;1.40;1.13;;;9.30;72.10;;;;;;5013339;28;20038;-68
2022/11/20 12:46:36;;;;;;;1.38;1.10;;;9.40;72.30;;;;;;5012041;28;20077;-68
2022/11/20 12:49:11;;;;;;;1.45;1.15;;;9.50;72.10;;;;;;4998112;28;20038;-68
2022/11/20 12:51:51;;;;;;;1.23;0.98;;;9.50;72.00;;;;;;4997199;28;20053;-68
2022/11/20 12:54:20;;;;;;;1.67;1.05;;;9.50;71.90;;;;;;5000255;28;20408;-68
2022/11/20 12:57:00;;;;;;;4.38;1.77;;;9.60;71.80;;;;;;5010174;28;20026;-68
2022/11/20 12:59:46;;;;;;;1.95;1.65;;;9.60;71.70;;;;;;5005272;28;20036;-68
2022/11/20 13:02:53;;;;;;;5.20;1.30;;;9.70;71.90;;;;;;5007375;28;20031;-69
2022/11/20 13:05:34;;;;;;;6.20;1.27;;;9.70;71.10;;;;;;4935312;29;20039;-68
2022/11/20 13:08:01;;;;;;;2.20;1.40;;;9.70;70.90;;;;;;4930611;29;20154;-69
2022/11/20 13:10:43;;;;;;;3.40;1.58;;;9.70;70.90;;;;;;4925321;29;20054;-69
2022/11/20 13:13:27;;;;;;;3.38;1.20;;;9.70;70.70;;;;;;4934988;29;20043;-68
2022/11/20 13:16:07;;;;;;;2.00;1.10;;;9.60;70.70;;;;;;4957513;28;20048;-68
2022/11/20 13:18:39;;;;;;;2.45;1.30;;;9.70;71.10;;;;;;4993610;28;20026;-67
2022/11/20 13:21:41;;;;;;;3.65;1.48;;;9.70;71.10;;;;;;5004903;28;20003;-68
2022/11/20 13:24:29;;;;;;;2.90;1.30;;;9.70;70.70;;;;;;5001328;28;20030;-68
2022/11/20 13:27:13;;;;;;;2.03;1.17;;;9.70;70.70;;;;;;4996535;28;20169;-68
2022/11/20 13:29:43;;;;;;;2.10;1.33;;;9.70;70.40;;;;;;4997808;28;20046;-69
2022/11/20 13:32:19;;;;;;;1.98;1.30;;;9.80;70.70;;;;;;4990498;28;20622;-68